Time;durP1;ratioP1;P1;durP2;ratioP2;P2;SDS_P1;SDS_P2;PMS_P1;PMS_P2;Temp;Humidity;BMP_temperature;BMP_pressure;BME280_temperature;BME280_humidity;BME280_pressure;Samples;Min_cycle;Max_cycle;Signal;HPM_P1;HPM_P2
2022/02/05 00:01:20;;;;;;;5.00;4.00;;;;;;;4.35;100.00;97764.57;1608962;87;20983;-64
2022/02/05 00:03:44;;;;;;;5.37;4.20;;;;;;;4.34;100.00;97764.64;1616670;86;21091;-64
2022/02/05 00:06:10;;;;;;;4.78;4.28;;;;;;;4.34;100.00;97767.22;1592210;88;21264;-64
2022/02/05 00:11:49;;;;;;;8.40;4.10;;;;;;;4.32;100.00;97761.33;1579754;88;21617;-65
2022/02/05 00:38:38;;;;;;;4.40;3.87;;;;;;;4.41;100.00;97729.36;1618568;88;20975;-65
2022/02/05 00:41:01;;;;;;;5.08;4.22;;;;;;;4.43;100.00;97727.99;1602312;88;21096;-65
2022/02/05 00:43:23;;;;;;;5.00;4.08;;;;;;;4.45;100.00;97723.55;1590117;87;21022;-65
2022/02/05 00:45:54;;;;;;;6.23;4.10;;;;;;;4.45;100.00;97719.25;1598638;87;21061;-65
2022/02/05 00:48:20;;;;;;;5.20;4.10;;;;;;;4.42;100.00;97705.63;1596734;87;21536;-65
2022/02/05 00:50:54;;;;;;;5.00;3.62;;;;;;;4.46;100.00;97711.03;1604269;87;20990;-64
2022/02/05 00:55:59;;;;;;;4.62;3.90;;;;;;;4.45;100.00;97705.47;1595966;87;21001;-64
2022/02/05 00:58:19;;;;;;;5.03;3.77;;;;;;;4.46;100.00;97708.45;1594281;87;21262;-64
2022/02/05 01:00:46;;;;;;;5.17;4.10;;;;;;;4.46;100.00;97707.15;1596094;87;21044;-65
2022/02/05 01:03:13;;;;;;;5.30;3.73;;;;;;;4.46;100.00;97701.98;1601259;87;21022;-65
2022/02/05 01:05:42;;;;;;;4.35;3.40;;;;;;;4.42;100.00;97699.17;1597653;87;21099;-65
2022/02/05 01:08:09;;;;;;;4.90;3.58;;;;;;;4.37;100.00;97705.05;1607900;88;21040;-65
2022/02/05 01:10:35;;;;;;;4.33;2.90;;;;;;;4.32;100.00;97699.32;1572346;89;21559;-65
2022/02/05 01:13:10;;;;;;;6.10;3.33;;;;;;;4.27;100.00;97699.56;1569459;87;21622;-65
2022/02/05 01:15:44;;;;;;;3.90;2.70;;;;;;;4.20;100.00;97693.90;1595038;87;21054;-65
2022/02/05 01:18:08;;;;;;;3.83;2.52;;;;;;;4.18;100.00;97689.73;1607129;87;21088;-64
2022/02/05 01:21:02;;;;;;;5.25;2.52;;;;;;;4.17;100.00;97686.31;1608781;88;21112;-65
2022/02/05 01:23:15;;;;;;;4.47;2.52;;;;;;;4.16;100.00;97685.92;1598310;87;22375;-65
2022/02/05 01:25:46;;;;;;;3.20;2.67;;;;;;;4.14;100.00;97678.70;1596281;88;21603;-65
2022/02/05 01:28:14;;;;;;;3.12;2.58;;;;;;;4.12;99.96;97679.73;1602863;87;21161;-64
2022/02/05 01:30:42;;;;;;;4.08;2.40;;;;;;;4.10;99.99;97672.05;1602489;87;21024;-65
2022/02/05 01:55:04;;;;;;;1.82;1.60;;;;;;;3.95;100.00;97659.94;1615149;87;21013;-64
2022/02/05 01:57:28;;;;;;;2.02;1.72;;;;;;;3.92;100.00;97670.44;1613616;86;21076;-64
2022/02/05 02:04:45;;;;;;;2.98;1.70;;;;;;;3.92;100.00;97671.30;1599025;88;21117;-64
2022/02/05 02:05:08;;;;;;;1.20;1.02;;;;;;;3.86;99.93;97691.42;1592901;88;21007;-64
2022/02/05 02:18:21;;;;;;;0.00;0.00;;;;;;;1.96;96.08;97816.88;1611210;88;20997;-65
2022/02/05 02:26:35;;;;;;;0.20;0.20;;;;;;;0.90;97.28;97849.91;1603445;88;21063;-65
2022/02/05 02:29:05;;;;;;;0.20;0.20;;;;;;;0.71;97.58;97859.20;1591094;88;21623;-65
2022/02/05 02:31:30;;;;;;;0.20;0.20;;;;;;;0.55;97.90;97862.31;1587104;88;21075;-65
2022/02/05 02:33:57;;;;;;;0.50;0.20;;;;;;;0.40;98.04;97886.83;1580310;88;21065;-66
2022/02/05 02:36:41;;;;;;;0.65;0.20;;;;;;;0.32;98.36;97890.55;1606190;87;21042;-66
2022/02/05 02:39:28;;;;;;;0.10;0.10;;;;;;;0.26;98.36;97903.61;1595787;87;22966;-65
2022/02/05 02:41:55;;;;;;;0.10;0.10;;;;;;;0.17;98.49;97894.05;1602050;87;21130;-66
2022/02/05 02:44:16;;;;;;;0.10;0.10;;;;;;;0.14;98.54;97900.58;1606451;88;21013;-66
2022/02/05 02:46:43;;;;;;;0.10;0.10;;;;;;;0.09;98.93;97911.89;1593815;88;21543;-65
2022/02/05 02:49:15;;;;;;;0.37;0.20;;;;;;;0.01;99.62;97924.97;1595753;87;21033;-66
2022/02/05 02:57:18;;;;;;;0.17;0.10;;;;;;;-0.05;100.00;97950.84;1603074;87;21060;-65
2022/02/05 02:59:53;;;;;;;0.10;0.10;;;;;;;-0.13;100.00;97934.86;1605124;87;21095;-65
2022/02/05 03:02:19;;;;;;;0.57;0.20;;;;;;;-0.16;100.00;97945.22;1617884;88;21593;-66
2022/02/05 03:04:45;;;;;;;0.53;0.20;;;;;;;-0.20;100.00;97959.02;1620495;88;21261;-66
2022/02/05 03:07:11;;;;;;;0.37;0.20;;;;;;;-0.20;100.00;97943.63;1590366;88;21654;-66
2022/02/05 03:09:38;;;;;;;0.30;0.10;;;;;;;-0.20;100.00;97951.32;1594926;88;21906;-65
2022/02/05 03:12:06;;;;;;;0.10;0.10;;;;;;;-0.17;100.00;97957.18;1593258;88;20974;-65
2022/02/05 03:14:33;;;;;;;0.10;0.10;;;;;;;-0.18;100.00;97962.38;1596721;88;21041;-65
2022/02/05 03:17:14;;;;;;;0.10;0.10;;;;;;;-0.20;100.00;97957.28;1623707;86;21133;-65
2022/02/05 03:19:32;;;;;;;0.10;0.10;;;;;;;-0.20;100.00;97961.58;1608836;87;21508;-66
2022/02/05 03:21:58;;;;;;;0.33;0.10;;;;;;;-0.19;100.00;97964.11;1611616;87;21050;-65
2022/02/05 03:24:25;;;;;;;0.78;0.15;;;;;;;-0.16;100.00;97963.17;1603339;87;21141;-66
2022/02/05 03:26:52;;;;;;;0.10;0.10;;;;;;;-0.15;100.00;97969.97;1638530;87;20962;-66
2022/02/05 03:29:18;;;;;;;0.20;0.20;;;;;;;-0.12;100.00;97975.83;1628733;87;21067;-66
2022/02/05 03:31:46;;;;;;;0.23;0.10;;;;;;;-0.10;100.00;97979.65;1633550;87;22076;-66
2022/02/05 03:34:12;;;;;;;0.65;0.20;;;;;;;-0.11;100.00;97981.80;1627932;87;21549;-66
2022/02/05 03:36:41;;;;;;;0.78;0.20;;;;;;;-0.07;100.00;97983.39;1634212;87;21343;-65
2022/02/05 03:39:08;;;;;;;2.08;0.45;;;;;;;-0.04;100.00;97987.14;1620134;87;21089;-65
2022/02/05 03:41:35;;;;;;;0.33;0.30;;;;;;;-0.01;100.00;97988.33;1626383;87;21537;-66
2022/02/05 03:44:03;;;;;;;1.77;0.50;;;;;;;0.03;100.00;97991.20;1618397;87;21331;-66
2022/02/05 03:46:30;;;;;;;1.85;0.60;;;;;;;0.09;100.00;97999.98;1632405;87;21040;-66
2022/02/05 03:48:57;;;;;;;2.62;0.60;;;;;;;0.14;100.00;98008.38;1624826;87;21019;-66
2022/02/05 03:51:24;;;;;;;5.12;1.10;;;;;;;0.19;100.00;98008.20;1630650;87;21666;-66
2022/02/05 03:53:52;;;;;;;6.05;1.55;;;;;;;0.25;100.00;98022.56;1624151;87;21098;-66
2022/02/05 03:56:18;;;;;;;;;;;;;;;0.28;100.00;98025.02;1619020;87;21995;-66
2022/02/05 03:58:45;;;;;;;3.58;1.27;;;;;;;0.33;100.00;98037.27;1609594;85;20101;-65
2022/02/05 04:01:14;;;;;;;6.15;1.92;;;;;;;0.38;100.00;98034.11;1603019;87;21543;-66
2022/02/05 04:03:41;;;;;;;12.53;1.82;;;;;;;0.43;100.00;98041.22;1621102;87;21054;-65
2022/02/05 04:06:09;;;;;;;8.40;1.20;;;;;;;0.47;100.00;98038.94;1621021;87;22416;-66
2022/02/05 04:08:36;;;;;;;8.18;1.20;;;;;;;0.53;100.00;98036.16;1613988;87;21544;-66
2022/02/05 04:11:08;;;;;;;11.12;1.80;;;;;;;0.58;100.00;98041.98;1626557;87;21090;-65
2022/02/05 04:16:22;;;;;;;9.78;1.75;;;;;;;0.69;100.00;98043.36;1619485;86;21071;-66
2022/02/05 04:18:59;;;;;;;9.93;1.98;;;;;;;0.74;100.00;98046.61;1605567;87;21104;-66
2022/02/05 04:21:26;;;;;;;13.00;2.98;;;;;;;0.79;100.00;98060.14;1637086;87;21596;-64
2022/02/05 04:23:53;;;;;;;13.78;1.52;;;;;;;0.82;100.00;98070.31;1610185;87;21040;-65
2022/02/05 04:26:21;;;;;;;9.18;2.15;;;;;;;0.85;100.00;98076.17;1643075;87;21054;-65
2022/02/05 04:28:48;;;;;;;11.33;1.72;;;;;;;0.90;100.00;98074.75;1595858;88;21029;-65
2022/02/05 04:31:15;;;;;;;8.13;1.60;;;;;;;0.93;100.00;98080.23;1622756;87;21095;-65
2022/02/05 04:33:41;;;;;;;7.73;1.93;;;;;;;0.97;100.00;98092.89;1619153;87;21265;-66
2022/02/05 04:36:09;;;;;;;11.68;1.80;;;;;;;1.01;100.00;98098.77;1602342;88;21083;-66
2022/02/05 04:38:37;;;;;;;;;;;;;;;1.03;100.00;98096.53;1608524;88;21029;-66
2022/02/05 04:41:13;;;;;;;8.33;1.87;;;;;;;1.07;100.00;98104.55;1600392;88;20206;-67
2022/02/05 04:43:54;;;;;;;15.50;2.62;;;;;;;1.07;100.00;98108.41;1603727;88;21567;-66
2022/02/05 04:46:34;;;;;;;13.28;2.40;;;;;;;1.09;100.00;98113.05;1607255;88;21540;-65
2022/02/05 04:48:59;;;;;;;7.35;1.62;;;;;;;1.13;100.00;98134.34;1601322;87;21111;-66
2022/02/05 04:53:58;;;;;;;11.03;1.75;;;;;;;1.16;100.00;98143.68;1607910;88;20963;-66
2022/02/05 04:56:32;;;;;;;5.28;1.55;;;;;;;1.17;100.00;98142.78;1620881;86;21115;-66
2022/02/05 05:07:45;;;;;;;12.28;2.10;;;;;;;1.16;100.00;98164.25;1620434;88;21061;-66
2022/02/05 05:12:16;;;;;;;7.47;1.70;;;;;;;1.21;100.00;98167.51;1597092;88;21245;-66
2022/02/05 05:19:41;;;;;;;9.83;1.65;;;;;;;1.23;100.00;98188.84;1597433;88;21024;-66
2022/02/05 05:22:02;;;;;;;7.47;1.60;;;;;;;1.25;100.00;98193.49;1593729;88;21104;-66
2022/02/05 05:24:30;;;;;;;13.43;2.72;;;;;;;1.26;100.00;98202.45;1609652;88;21097;-66
2022/02/05 05:26:57;;;;;;;13.60;2.17;;;;;;;1.26;100.00;98214.45;1612085;88;20927;-65
2022/02/05 05:29:24;;;;;;;13.25;2.00;;;;;;;1.28;100.00;98212.67;1608538;88;20949;-66
2022/02/05 05:31:51;;;;;;;12.80;2.50;;;;;;;1.29;100.00;98215.66;1607674;87;27237;-65
2022/02/05 05:34:18;;;;;;;9.70;2.02;;;;;;;1.32;100.00;98212.98;1624384;87;21018;-65
2022/02/05 05:36:44;;;;;;;13.05;2.08;;;;;;;1.34;100.00;98230.04;1622916;87;21314;-66
2022/02/05 05:39:14;;;;;;;9.33;2.00;;;;;;;1.34;100.00;98231.74;1602075;88;21050;-65
2022/02/05 05:41:42;;;;;;;12.00;2.45;;;;;;;1.35;100.00;98230.88;1588905;88;21078;-65
2022/02/05 05:44:34;;;;;;;;;;;;;;;1.36;100.00;98228.69;1608680;87;21047;-65
2022/02/05 05:46:47;;;;;;;9.05;1.60;;;;;;;1.35;100.00;98239.87;1622580;88;20181;-65
2022/02/05 05:49:21;;;;;;;14.25;2.33;;;;;;;1.36;100.00;98251.83;1593803;88;21550;-64
2022/02/05 05:51:48;;;;;;;12.13;2.10;;;;;;;1.39;100.00;98259.44;1594244;88;21641;-64
2022/02/05 05:54:16;;;;;;;8.45;2.15;;;;;;;1.43;100.00;98264.89;1601605;88;21092;-64
2022/02/05 05:56:45;;;;;;;8.68;2.12;;;;;;;1.44;100.00;98267.84;1587192;88;21303;-64
2022/02/05 05:59:13;;;;;;;8.80;2.40;;;;;;;1.45;100.00;98273.38;1576981;89;21149;-64
2022/02/05 06:01:39;;;;;;;;;;;;;;;1.49;100.00;98283.97;1601906;88;21205;-64
2022/02/05 06:04:06;;;;;;;14.83;3.37;;;;;;;1.49;100.00;98278.83;1602749;88;20445;-64
2022/02/05 06:06:39;;;;;;;13.22;2.60;;;;;;;1.50;100.00;98283.06;1592172;88;20994;-65
2022/02/05 06:09:05;;;;;;;20.15;2.85;;;;;;;1.51;100.00;98282.20;1605956;87;21751;-64
2022/02/05 06:11:32;;;;;;;13.18;2.45;;;;;;;1.53;100.00;98293.25;1621226;88;21614;-64
2022/02/05 06:13:59;;;;;;;9.23;2.30;;;;;;;1.56;100.00;98303.44;1616319;88;21493;-64
2022/02/05 06:16:30;;;;;;;14.10;2.75;;;;;;;1.58;100.00;98292.27;1596507;88;21172;-64
2022/02/05 06:18:58;;;;;;;11.93;2.40;;;;;;;1.60;100.00;98305.91;1606426;88;21602;-64
2022/02/05 06:21:23;;;;;;;17.37;2.22;;;;;;;1.64;100.00;98302.34;1578418;88;21038;-64
2022/02/05 06:23:50;;;;;;;10.13;1.85;;;;;;;1.66;100.00;98302.70;1604187;88;21630;-65
2022/02/05 06:26:18;;;;;;;11.97;2.30;;;;;;;1.66;100.00;98304.44;1603875;88;21187;-63
2022/02/05 06:28:45;;;;;;;9.83;2.00;;;;;;;1.64;100.00;98307.50;1613356;88;21012;-63
2022/02/05 06:31:12;;;;;;;16.32;2.80;;;;;;;1.63;100.00;98317.41;1629257;87;21087;-64
2022/02/05 06:33:38;;;;;;;8.13;1.70;;;;;;;1.62;100.00;98311.84;1608529;88;21749;-63
2022/02/05 06:36:05;;;;;;;9.48;1.95;;;;;;;1.65;100.00;98306.59;1597142;88;21030;-63
2022/02/05 06:38:32;;;;;;;13.83;2.60;;;;;;;1.68;100.00;98323.20;1601969;88;21461;-63
2022/02/05 06:40:59;;;;;;;10.68;2.20;;;;;;;1.70;100.00;98331.73;1602874;88;21039;-63
2022/02/05 06:43:26;;;;;;;7.10;2.22;;;;;;;1.74;100.00;98326.89;1625303;87;21137;-63
2022/02/05 06:45:52;;;;;;;14.23;2.53;;;;;;;1.78;100.00;98345.18;1601307;88;21550;-64
2022/02/05 06:48:19;;;;;;;10.20;2.05;;;;;;;1.79;100.00;98353.28;1633039;87;21037;-64
2022/02/05 06:50:46;;;;;;;9.98;2.33;;;;;;;1.80;100.00;98357.56;1605766;87;21546;-64
2022/02/05 06:53:13;;;;;;;10.82;2.10;;;;;;;1.81;100.00;98348.10;1601875;88;21250;-64
2022/02/05 06:55:40;;;;;;;14.97;2.43;;;;;;;1.84;100.00;98353.97;1606448;88;21075;-64
2022/02/05 06:58:07;;;;;;;13.88;2.17;;;;;;;1.85;100.00;98355.67;1605681;88;21068;-64
2022/02/05 07:00:34;;;;;;;15.95;2.50;;;;;;;1.85;100.00;98362.11;1608794;88;21127;-64
2022/02/05 07:03:03;;;;;;;14.05;2.55;;;;;;;1.89;100.00;98371.39;1641227;85;23906;-64
2022/02/05 07:05:30;;;;;;;6.75;1.90;;;;;;;1.90;100.00;98367.92;1629992;87;21030;-64
2022/02/05 07:07:57;;;;;;;12.65;2.92;;;;;;;1.93;100.00;98366.55;1629879;87;20977;-64
2022/02/05 07:10:24;;;;;;;14.35;2.40;;;;;;;1.95;100.00;98400.78;1627034;87;21103;-64
2022/02/05 07:13:12;;;;;;;13.35;2.80;;;;;;;1.96;100.00;98381.89;1612309;87;21087;-64
2022/02/05 07:15:35;;;;;;;14.85;2.98;;;;;;;1.99;100.00;98377.92;1599725;88;22505;-64
2022/02/05 07:18:42;;;;;;;18.50;2.80;;;;;;;2.01;100.00;98390.27;1589014;88;20960;-64
2022/02/05 07:31:08;;;;;;;12.10;2.45;;;;;;;2.10;100.00;98370.26;1617831;87;21546;-64
2022/02/05 07:33:34;;;;;;;11.80;2.62;;;;;;;2.13;100.00;98376.59;1626529;86;21087;-64
2022/02/05 07:36:02;;;;;;;15.18;2.87;;;;;;;2.19;100.00;98382.39;1624847;86;21040;-64
2022/02/05 07:38:30;;;;;;;14.95;3.00;;;;;;;2.24;100.00;98391.22;1629510;86;21059;-65
2022/02/05 07:40:57;;;;;;;12.15;3.27;;;;;;;2.28;100.00;98387.66;1630557;86;21179;-65
2022/02/05 07:43:29;;;;;;;15.43;3.00;;;;;;;2.30;100.00;98398.76;1631186;86;20939;-65
2022/02/05 07:45:57;;;;;;;9.43;1.70;;;;;;;2.30;100.00;98397.47;1625568;85;21039;-65
2022/02/05 07:48:24;;;;;;;10.50;2.33;;;;;;;2.32;100.00;98386.64;1624610;86;21007;-65
2022/02/05 07:50:54;;;;;;;12.07;2.22;;;;;;;2.39;100.00;98389.86;1626151;86;21061;-65
2022/02/05 07:53:23;;;;;;;12.68;2.92;;;;;;;2.46;100.00;98404.19;1623485;87;21074;-65
2022/02/05 07:55:51;;;;;;;9.63;2.27;;;;;;;2.48;100.00;98399.00;1630274;86;21081;-65
2022/02/05 07:58:18;;;;;;;8.97;2.67;;;;;;;2.50;100.00;98395.48;1629161;86;20951;-65
2022/02/05 08:00:47;;;;;;;9.23;2.20;;;;;;;2.56;100.00;98413.28;1627110;86;21061;-66
2022/02/05 08:03:15;;;;;;;14.18;2.40;;;;;;;2.60;100.00;98414.01;1632934;86;21112;-65
2022/02/05 08:05:43;;;;;;;10.23;2.65;;;;;;;2.59;100.00;98423.94;1632408;86;22001;-64
2022/02/05 08:08:15;;;;;;;5.75;1.72;;;;;;;2.58;100.00;98424.39;1631455;86;21036;-66
2022/02/05 08:10:52;;;;;;;13.15;2.12;;;;;;;2.60;100.00;98429.47;1628421;86;21092;-64
2022/02/05 08:13:09;;;;;;;10.50;2.10;;;;;;;2.60;100.00;98444.93;1628602;86;21046;-64
2022/02/05 08:15:36;;;;;;;11.25;2.83;;;;;;;2.59;100.00;98438.11;1628381;86;20968;-64
2022/02/05 08:18:03;;;;;;;8.83;1.92;;;;;;;2.60;100.00;98441.91;1624088;86;21459;-64
2022/02/05 08:20:36;;;;;;;6.75;1.85;;;;;;;2.64;100.00;98441.37;1630831;86;21051;-64
2022/02/05 08:23:03;;;;;;;6.80;1.90;;;;;;;2.68;100.00;98440.35;1637788;86;21533;-63
2022/02/05 08:25:30;;;;;;;9.60;1.67;;;;;;;2.70;100.00;98441.14;1643813;85;21083;-63
2022/02/05 08:27:57;;;;;;;7.40;2.33;;;;;;;2.67;100.00;98448.98;1614633;88;21115;-63
2022/02/05 08:30:24;;;;;;;7.20;1.47;;;;;;;2.64;100.00;98452.97;1624361;87;21102;-63
2022/02/05 08:32:51;;;;;;;7.00;1.43;;;;;;;2.64;100.00;98451.67;1603815;87;21099;-63
2022/02/05 08:35:19;;;;;;;8.20;2.00;;;;;;;2.66;100.00;98461.46;1588863;88;21230;-63
2022/02/05 08:37:48;;;;;;;5.28;1.50;;;;;;;2.66;100.00;98457.59;1591682;88;21063;-63
2022/02/05 08:40:16;;;;;;;6.92;1.77;;;;;;;2.68;100.00;98455.81;1589851;88;21045;-64
2022/02/05 08:42:44;;;;;;;6.00;1.45;;;;;;;2.83;100.00;98469.46;1590042;88;21041;-64
2022/02/05 08:45:11;;;;;;;6.28;1.95;;;;;;;2.85;100.00;98471.52;1593166;87;28375;-64
2022/02/05 08:47:40;;;;;;;8.70;1.90;;;;;;;2.84;100.00;98469.84;1590318;88;21498;-63
2022/02/05 08:50:08;;;;;;;7.67;1.50;;;;;;;2.79;100.00;98462.72;1589533;88;20993;-63
2022/02/05 08:52:40;;;;;;;4.70;1.07;;;;;;;2.79;100.00;98473.48;1587522;88;21060;-64
2022/02/05 08:55:09;;;;;;;4.00;1.70;;;;;;;2.78;100.00;98471.36;1590434;88;21116;-64
2022/02/05 08:57:39;;;;;;;6.33;1.50;;;;;;;2.84;100.00;98475.00;1591524;88;20989;-64
2022/02/05 09:00:15;;;;;;;6.30;1.40;;;;;;;2.91;100.00;98476.47;1595466;88;21053;-66
2022/02/05 09:05:39;;;;;;;7.37;1.77;;;;;;;2.97;100.00;98479.70;1559131;88;21033;-65
2022/02/05 09:07:59;;;;;;;12.63;2.58;;;;;;;2.98;100.00;98477.53;1591228;88;21305;-64
2022/02/05 09:10:35;;;;;;;;;;;;;;;2.95;100.00;98471.20;1591060;88;21119;-64
2022/02/05 09:13:38;;;;;;;4.10;1.20;;;;;;;2.97;100.00;98488.30;1595879;88;20153;-63
2022/02/05 09:15:53;;;;;;;4.43;1.50;;;;;;;2.94;100.00;98495.28;1722068;81;20998;-64
2022/02/05 09:18:21;;;;;;;6.75;1.92;;;;;;;2.81;99.74;98494.90;1726413;82;21155;-63
2022/02/05 09:20:50;;;;;;;4.50;1.60;;;;;;;2.71;99.57;98500.80;1722774;81;21042;-62
2022/02/05 09:23:19;;;;;;;4.50;1.70;;;;;;;2.63;99.83;98497.23;1722495;82;21480;-63
2022/02/05 09:25:47;;;;;;;6.53;1.52;;;;;;;2.62;100.00;98508.41;1725551;81;21240;-63
2022/02/05 09:28:16;;;;;;;;;;;;;;;2.57;99.90;98499.16;1727560;81;21071;-64
2022/02/05 09:31:38;;;;;;;8.35;1.35;;;;;;;2.59;100.00;98492.22;1834097;76;22156;-63
2022/02/05 09:34:06;;;;;;;5.67;1.70;;;;;;;2.56;100.00;98503.93;1769484;79;21060;-63
2022/02/05 09:36:39;;;;;;;3.98;1.37;;;;;;;2.56;100.00;98507.80;1764068;80;21872;-63
2022/02/05 09:39:09;;;;;;;5.45;1.50;;;;;;;2.61;100.00;98499.46;1763528;79;21194;-64
2022/02/05 09:41:36;;;;;;;5.53;1.50;;;;;;;2.62;100.00;98512.28;1786383;79;21004;-64
2022/02/05 09:44:05;;;;;;;7.55;1.75;;;;;;;2.71;100.00;98512.41;1796327;78;20933;-63
2022/02/05 09:46:37;;;;;;;5.58;1.60;;;;;;;2.88;100.00;98525.54;1782866;79;20911;-64
2022/02/05 09:49:06;;;;;;;3.65;1.32;;;;;;;3.10;100.00;98524.78;1768850;79;21176;-64
2022/02/05 09:51:40;;;;;;;3.92;1.22;;;;;;;3.31;100.00;98521.44;1763269;80;21485;-64
2022/02/05 09:54:07;;;;;;;3.05;1.22;;;;;;;3.38;100.00;98525.07;1787032;79;21576;-64
2022/02/05 09:56:38;;;;;;;6.85;1.60;;;;;;;3.33;99.74;98511.04;1788366;79;21100;-65
2022/02/05 09:59:06;;;;;;;6.53;1.25;;;;;;;3.44;100.00;98531.29;1760129;79;21095;-64
2022/02/05 10:01:36;;;;;;;5.28;1.42;;;;;;;3.58;100.00;98527.73;1761316;79;22241;-64
2022/02/05 10:04:12;;;;;;;3.67;1.25;;;;;;;3.68;100.00;98527.79;1766877;80;21060;-65
2022/02/05 10:06:48;;;;;;;3.80;1.50;;;;;;;3.76;99.95;98551.57;1775518;79;21566;-65
2022/02/05 10:09:17;;;;;;;3.27;1.37;;;;;;;3.88;100.00;98541.67;1764771;80;20922;-67
2022/02/05 10:11:57;;;;;;;4.08;1.37;;;;;;;3.90;99.58;98542.00;1765093;79;21053;-65
2022/02/05 10:14:30;;;;;;;3.35;1.62;;;;;;;3.84;99.28;98554.30;1760893;79;21143;-64
2022/02/05 10:17:00;;;;;;;6.75;1.80;;;;;;;3.72;99.02;98541.41;1759596;81;22355;-64
2022/02/05 10:20:02;;;;;;;7.53;1.65;;;;;;;3.72;99.34;98553.86;1856752;76;22746;-63
2022/02/05 10:25:29;;;;;;;6.80;1.47;;;;;;;3.66;99.22;98568.30;1715341;82;21174;-64
2022/02/05 10:27:56;;;;;;;5.75;1.87;;;;;;;3.53;98.79;98581.30;1718697;82;21021;-64
2022/02/05 10:30:30;;;;;;;5.90;1.40;;;;;;;3.41;98.79;98575.27;1713450;82;21472;-64
2022/02/05 10:34:29;;;;;;;8.35;2.37;;;;;;;3.25;98.75;98579.71;1836470;76;22696;-64
2022/02/05 10:37:18;;;;;;;15.30;3.10;;;;;;;3.25;99.37;98580.12;1816820;78;20970;-64
2022/02/05 10:45:09;;;;;;;4.30;1.50;;;;;;;3.50;99.36;98587.83;1824474;78;21117;-64
2022/02/05 10:47:58;;;;;;;5.15;1.37;;;;;;;3.50;99.15;98590.41;1798338;78;21035;-64
2022/02/05 10:50:33;;;;;;;6.17;1.80;;;;;;;3.48;98.48;98594.81;1818937;78;21032;-65
2022/02/05 10:53:23;;;;;;;7.25;1.70;;;;;;;3.34;98.21;98602.59;1824179;78;21884;-65
2022/02/05 11:07:29;;;;;;;5.58;1.70;;;;;;;3.71;98.42;98609.45;1825972;78;21533;-65
2022/02/05 11:16:04;;;;;;;3.45;1.20;;;;;;;3.65;98.88;98636.33;1820325;78;21552;-66
2022/02/05 11:20:57;;;;;;;5.62;1.47;;;;;;;3.62;98.36;98641.61;1757901;79;21055;-64
2022/02/05 11:23:29;;;;;;;7.53;2.00;;;;;;;3.58;98.42;98632.27;1781864;79;22025;-64
2022/02/05 11:26:08;;;;;;;9.85;2.05;;;;;;;3.62;98.80;98635.61;1775884;79;20902;-64
2022/02/05 11:28:58;;;;;;;6.55;2.10;;;;;;;3.73;99.02;98643.34;1762494;80;20950;-65
2022/02/05 11:31:41;;;;;;;6.50;2.10;;;;;;;3.79;98.87;98642.28;1791251;79;21064;-65
2022/02/05 11:34:25;;;;;;;8.80;2.60;;;;;;;3.94;99.10;98629.23;1782403;78;21158;-65
2022/02/05 11:37:17;;;;;;;7.92;2.00;;;;;;;4.02;98.70;98643.99;1784162;79;21012;-65
2022/02/05 11:39:53;;;;;;;5.85;1.72;;;;;;;4.08;98.34;98637.30;1775620;78;22448;-65
2022/02/05 11:42:36;;;;;;;5.78;2.00;;;;;;;4.10;97.92;98638.09;1790200;79;20995;-66
2022/02/05 11:45:28;;;;;;;7.75;2.00;;;;;;;4.09;98.04;98640.29;1773557;79;20957;-66
2022/02/05 11:47:57;;;;;;;10.08;1.77;;;;;;;4.13;98.00;98648.30;1782817;79;21126;-65
2022/02/05 11:50:26;;;;;;;8.15;2.27;;;;;;;4.11;97.82;98632.01;1770987;79;21055;-65
2022/02/05 11:52:57;;;;;;;5.97;1.80;;;;;;;4.09;97.96;98643.30;1801102;79;21066;-65
2022/02/05 11:55:42;;;;;;;6.78;1.67;;;;;;;4.16;98.26;98645.59;1776583;79;21496;-65
2022/02/05 11:58:10;;;;;;;5.67;1.65;;;;;;;4.19;97.93;98642.89;1776594;78;21705;-65
2022/02/05 12:00:39;;;;;;;;;;;;;;;4.03;97.35;98631.45;1782980;79;21102;-65
2022/02/05 12:03:29;;;;;;;7.87;2.35;;;;;;;3.90;97.21;98645.76;1763321;79;20161;-66
2022/02/05 12:06:02;;;;;;;8.80;2.02;;;;;;;3.79;97.33;98639.23;1764696;79;21487;-65
2022/02/05 12:08:39;;;;;;;11.00;2.47;;;;;;;3.73;97.38;98636.05;1750255;81;21013;-65
2022/02/05 12:11:32;;;;;;;8.70;1.85;;;;;;;3.65;97.46;98645.81;1790149;79;21018;-65
2022/02/05 12:14:17;;;;;;;9.08;2.00;;;;;;;3.63;97.55;98638.56;1772586;79;21081;-64
2022/02/05 12:17:16;;;;;;;9.13;1.90;;;;;;;3.60;97.63;98639.52;1793241;78;21056;-64
2022/02/05 12:20:02;;;;;;;8.48;2.10;;;;;;;3.58;97.62;98634.85;1774856;78;21497;-65
2022/02/05 12:23:11;;;;;;;7.45;1.90;;;;;;;3.55;97.53;98650.45;1775727;79;21394;-65
2022/02/05 12:25:30;;;;;;;5.67;2.00;;;;;;;3.51;97.55;98654.05;1753321;81;21082;-64
2022/02/05 12:27:56;;;;;;;8.20;1.90;;;;;;;3.27;97.23;98642.39;1748218;81;21656;-64
2022/02/05 12:30:35;;;;;;;5.13;1.77;;;;;;;3.29;97.25;98644.48;1748465;81;21025;-65
2022/02/05 12:33:03;;;;;;;5.87;1.70;;;;;;;3.20;97.32;98655.12;1752926;81;21138;-65
2022/02/05 12:35:31;;;;;;;10.63;2.55;;;;;;;3.14;97.52;98657.92;1745213;81;21613;-65
2022/02/05 12:38:05;;;;;;;10.78;1.92;;;;;;;3.14;97.99;98654.05;1742119;81;21125;-64
2022/02/05 12:40:44;;;;;;;7.50;2.30;;;;;;;3.22;98.05;98660.21;1752658;81;21546;-65
2022/02/05 12:43:13;;;;;;;7.45;1.95;;;;;;;3.20;97.92;98660.73;1734875;81;21247;-65
2022/02/05 12:45:56;;;;;;;5.75;1.70;;;;;;;3.14;97.69;98681.13;1733832;81;21624;-64
2022/02/05 12:48:25;;;;;;;7.08;2.15;;;;;;;3.01;97.55;98679.84;1701370;83;21052;-65
2022/02/05 12:50:51;;;;;;;7.72;2.20;;;;;;;2.89;97.41;98699.98;1686984;83;20997;-65
2022/02/05 12:53:19;;;;;;;4.97;1.83;;;;;;;2.79;97.39;98698.59;1712837;82;22407;-64
2022/02/05 12:55:47;;;;;;;4.05;1.70;;;;;;;2.67;97.24;98697.70;1678529;83;21439;-64
2022/02/05 12:58:17;;;;;;;;;;;;;;;2.58;97.37;98707.02;1703542;84;21021;-64
2022/02/05 13:00:43;;;;;;;6.35;2.05;;;;;;;2.50;97.37;98712.85;1701160;81;20202;-64
2022/02/05 13:03:25;;;;;;;4.80;1.62;;;;;;;2.44;97.49;98721.16;1774454;79;21751;-64
2022/02/05 13:05:52;;;;;;;3.90;1.77;;;;;;;2.50;97.56;98721.42;1766029;79;21451;-64
2022/02/05 13:08:19;;;;;;;5.47;1.53;;;;;;;2.40;97.77;98727.28;1759503;80;21562;-65
2022/02/05 13:10:46;;;;;;;4.95;1.47;;;;;;;2.40;97.77;98727.28;1762335;81;21836;-65
2022/02/05 13:13:13;;;;;;;;;;;;;;;2.36;97.74;98738.58;1786439;79;20949;-64
2022/02/05 13:15:40;;;;;;;4.15;1.35;;;;;;;2.40;97.60;98732.43;1791419;79;20151;-64
2022/02/05 13:18:18;;;;;;;7.13;1.73;;;;;;;2.36;97.80;98738.58;1788221;79;21496;-64
2022/02/05 13:34:25;;;;;;;8.50;2.42;;;;;;;2.57;97.75;98741.39;1788459;78;21576;-64
2022/02/05 13:36:59;;;;;;;8.35;2.70;;;;;;;2.55;97.71;98749.60;1756914;79;20947;-65
2022/02/05 13:39:39;;;;;;;12.00;2.80;;;;;;;2.55;97.81;98747.02;1764733;79;21035;-64
2022/02/05 13:42:04;;;;;;;;;;;;;;;2.58;97.92;98755.98;1792770;79;20933;-64
2022/02/05 13:44:56;;;;;;;13.08;4.30;;;;;;;2.57;97.88;98755.11;1773331;80;21733;-65
2022/02/05 13:47:32;;;;;;;6.50;2.58;;;;;;;2.58;97.92;98761.13;1770130;79;20910;-64
2022/02/05 13:50:07;;;;;;;12.75;2.02;;;;;;;2.59;97.95;98762.81;1760586;81;26638;-64
2022/02/05 13:52:48;;;;;;;8.18;3.20;;;;;;;2.57;97.85;98772.31;1764111;79;20965;-64
2022/02/05 13:55:21;;;;;;;9.25;2.10;;;;;;;2.56;97.92;98777.08;1773502;79;20993;-64
2022/02/05 13:58:14;;;;;;;5.87;1.92;;;;;;;2.59;97.73;98784.27;1787977;79;21340;-65
2022/02/05 14:01:02;;;;;;;7.58;1.72;;;;;;;2.54;97.59;98786.12;1792922;79;21022;-65
2022/02/05 14:03:41;;;;;;;10.10;2.00;;;;;;;2.52;97.57;98780.62;1786432;79;21033;-66
2022/02/05 14:06:15;;;;;;;8.75;2.20;;;;;;;2.52;97.64;98779.33;1779160;79;21122;-64
2022/02/05 14:08:45;;;;;;;5.65;1.80;;;;;;;2.52;97.73;98787.06;1763251;79;21523;-64
2022/02/05 14:11:16;;;;;;;9.43;2.45;;;;;;;2.54;97.81;98787.87;1763586;79;21133;-64
2022/02/05 14:13:43;;;;;;;13.70;2.77;;;;;;;2.55;97.82;98799.85;1796891;79;21099;-64
2022/02/05 14:16:10;;;;;;;6.25;2.20;;;;;;;2.54;97.86;98793.86;1768000;81;21557;-67
2022/02/05 14:18:53;;;;;;;;;;;;;;;2.57;97.93;98792.92;1777452;79;20965;-66
2022/02/05 14:21:18;;;;;;;13.98;2.87;;;;;;;2.58;98.02;98797.21;1768760;80;20121;-66
2022/02/05 14:23:53;;;;;;;10.72;2.95;;;;;;;2.57;97.97;98799.38;1771961;79;21385;-65
2022/02/05 14:26:27;;;;;;;14.75;2.67;;;;;;;2.57;98.01;98796.80;1771932;79;21005;-67
2022/02/05 14:28:57;;;;;;;9.88;2.85;;;;;;;2.57;98.05;98803.23;1775456;79;21018;-64